Time;durP1;ratioP1;P1;durP2;ratioP2;P2;SDS_P1;SDS_P2;PMS_P1;PMS_P2;Temp;Humidity;BMP_temperature;BMP_pressure;BME280_temperature;BME280_humidity;BME280_pressure;Samples;Min_cycle;Max_cycle;Signal;HPM_P1;HPM_P2
2022/11/21 00:00:53;;;;;;;41.72;26.58;;;4.80;99.90;;;;;;5050787;28;20044;-73
2022/11/21 00:03:19;;;;;;;44.97;29.55;;;4.80;99.90;;;;;;5051066;28;20029;-73
2022/11/21 00:05:47;;;;;;;43.63;28.00;;;4.90;99.90;;;;;;5051292;28;20041;-73
2022/11/21 00:08:15;;;;;;;40.42;26.15;;;4.90;99.90;;;;;;5052426;28;20068;-73
2022/11/21 00:10:42;;;;;;;40.30;25.75;;;4.90;99.90;;;;;;5052462;28;20485;-73
2022/11/21 00:13:15;;;;;;;41.33;27.02;;;5.10;99.90;;;;;;5052506;28;20527;-72
2022/11/21 00:15:41;;;;;;;;;;;5.10;99.90;;;;;;5068403;28;20524;-73
2022/11/21 00:18:07;;;;;;;40.75;25.10;;;5.20;99.90;;;;;;5052390;28;19999;-72
2022/11/21 00:20:35;;;;;;;40.60;25.92;;;5.30;99.90;;;;;;5050819;28;20076;-73
2022/11/21 00:23:02;;;;;;;38.58;24.65;;;5.30;99.90;;;;;;5051343;28;20036;-73
2022/11/21 00:25:27;;;;;;;40.03;25.33;;;5.30;99.90;;;;;;5052094;28;20521;-73
2022/11/21 00:27:53;;;;;;;40.47;26.33;;;5.40;99.90;;;;;;5034519;28;20029;-73
2022/11/21 00:30:19;;;;;;;36.67;24.95;;;5.40;99.90;;;;;;5051122;28;20033;-73
2022/11/21 00:32:44;;;;;;;36.58;25.02;;;5.30;99.90;;;;;;5052424;28;20029;-73
2022/11/21 00:35:10;;;;;;;39.03;26.70;;;5.20;99.90;;;;;;5051323;28;20033;-73
2022/11/21 00:37:35;;;;;;;41.17;25.92;;;5.10;99.90;;;;;;5051141;28;20040;-73
2022/11/21 00:40:01;;;;;;;38.33;25.80;;;5.00;99.90;;;;;;5051234;28;20025;-73
2022/11/21 00:42:27;;;;;;;41.08;27.70;;;5.10;99.90;;;;;;5050761;28;20037;-73
2022/11/21 00:44:52;;;;;;;40.67;26.35;;;5.10;99.90;;;;;;5034436;28;20048;-73
2022/11/21 00:47:18;;;;;;;41.65;27.45;;;5.00;99.90;;;;;;5050980;28;20075;-73
2022/11/21 00:49:44;;;;;;;38.33;25.52;;;5.00;99.90;;;;;;5050484;28;20150;-73
2022/11/21 00:52:09;;;;;;;39.20;25.35;;;5.00;99.90;;;;;;5051216;28;20112;-73
2022/11/21 00:54:35;;;;;;;38.10;25.23;;;5.10;99.90;;;;;;5052106;28;20079;-73
2022/11/21 00:57:00;;;;;;;39.17;25.75;;;5.20;99.90;;;;;;5051006;28;20029;-73
2022/11/21 00:59:26;;;;;;;37.30;24.25;;;5.30;99.90;;;;;;5050986;28;20037;-73
2022/11/21 01:01:52;;;;;;;37.78;24.92;;;5.20;99.90;;;;;;5050845;28;20025;-73
2022/11/21 01:04:18;;;;;;;39.72;25.75;;;5.10;99.90;;;;;;5052033;28;20480;-71
2022/11/21 01:06:43;;;;;;;37.15;25.10;;;5.00;99.90;;;;;;5050715;28;20059;-71
2022/11/21 01:09:09;;;;;;;45.03;27.80;;;4.90;99.90;;;;;;5050837;28;20151;-71
2022/11/21 01:11:35;;;;;;;39.90;25.45;;;4.80;99.90;;;;;;5051015;28;20041;-71
2022/11/21 01:14:00;;;;;;;39.85;25.27;;;4.70;99.90;;;;;;5051207;28;20033;-71
2022/11/21 01:16:27;;;;;;;39.67;25.90;;;4.70;99.90;;;;;;5051691;28;20103;-70
2022/11/21 01:18:54;;;;;;;40.75;26.08;;;4.70;99.90;;;;;;5052375;28;20033;-71
2022/11/21 01:21:22;;;;;;;40.53;26.25;;;4.60;99.90;;;;;;5051905;28;20029;-70
2022/11/21 01:23:48;;;;;;;40.10;26.08;;;4.50;99.90;;;;;;5052255;28;20039;-71
2022/11/21 01:26:17;;;;;;;42.83;26.90;;;4.50;99.90;;;;;;5050840;28;20029;-71
2022/11/21 01:28:43;;;;;;;43.97;27.55;;;4.50;99.90;;;;;;5054154;28;20029;-70
2022/11/21 01:31:17;;;;;;;44.15;27.13;;;4.40;99.90;;;;;;5054609;28;20389;-70
2022/11/21 01:33:43;;;;;;;40.65;26.15;;;4.20;99.90;;;;;;5071271;28;20086;-70
2022/11/21 01:36:30;;;;;;;42.28;26.45;;;4.30;99.90;;;;;;5054320;28;20082;-71
2022/11/21 01:38:58;;;;;;;44.92;27.80;;;4.40;99.90;;;;;;5070778;28;20052;-70
2022/11/21 01:41:28;;;;;;;42.85;27.08;;;4.50;99.90;;;;;;5055578;28;20075;-71
2022/11/21 01:43:54;;;;;;;43.35;26.60;;;4.50;99.90;;;;;;5055323;28;20439;-71
2022/11/21 01:46:21;;;;;;;45.20;27.70;;;4.40;99.90;;;;;;5054201;28;20036;-71
2022/11/21 01:48:57;;;;;;;45.22;27.52;;;4.40;99.90;;;;;;5055524;28;20033;-71
2022/11/21 01:51:30;;;;;;;44.38;26.88;;;4.30;99.90;;;;;;5055331;28;20021;-70
2022/11/21 01:54:02;;;;;;;41.45;25.33;;;4.40;99.90;;;;;;5054985;28;20110;-70
2022/11/21 01:56:31;;;;;;;44.15;27.50;;;4.50;99.90;;;;;;5054118;28;20036;-70
2022/11/21 01:59:00;;;;;;;40.40;24.95;;;4.50;99.90;;;;;;5055245;28;20103;-70
2022/11/21 02:01:27;;;;;;;40.17;25.85;;;4.70;99.90;;;;;;5055237;28;20029;-70
2022/11/21 02:03:55;;;;;;;38.92;24.52;;;4.80;99.90;;;;;;5037168;28;20063;-72
2022/11/21 02:06:23;;;;;;;40.10;24.50;;;4.80;99.90;;;;;;5054775;28;20040;-77
2022/11/21 02:08:49;;;;;;;40.60;26.67;;;4.80;99.90;;;;;;5055454;28;20057;-77
2022/11/21 02:11:43;;;;;;;40.40;24.75;;;4.80;99.90;;;;;;5054972;28;20112;-77
2022/11/21 02:14:10;;;;;;;36.13;21.98;;;4.90;99.90;;;;;;5053841;28;20048;-79
2022/11/21 02:16:36;;;;;;;39.30;25.27;;;4.90;99.90;;;;;;5053637;28;20519;-79
2022/11/21 02:19:02;;;;;;;35.38;22.65;;;5.10;99.90;;;;;;5053867;28;20025;-79
2022/11/21 02:21:43;;;;;;;35.95;23.23;;;5.20;99.90;;;;;;5053672;28;20030;-79
2022/11/21 02:24:08;;;;;;;36.75;23.27;;;5.30;99.90;;;;;;5054827;28;20156;-70
2022/11/21 02:26:34;;;;;;;40.22;24.52;;;5.30;99.90;;;;;;5053580;28;20485;-77
2022/11/21 02:29:00;;;;;;;37.90;25.05;;;5.40;99.90;;;;;;5053995;28;20473;-77
2022/11/21 02:31:26;;;;;;;32.95;22.65;;;5.40;99.90;;;;;;5054981;28;20044;-73
2022/11/21 02:33:51;;;;;;;35.25;23.90;;;5.40;99.90;;;;;;5053640;28;20083;-78
2022/11/21 02:36:39;;;;;;;35.92;23.40;;;5.40;99.90;;;;;;5055312;28;20045;-71
2022/11/21 02:39:09;;;;;;;36.20;23.13;;;5.40;99.90;;;;;;5071111;28;20369;-72
2022/11/21 02:41:39;;;;;;;34.13;22.63;;;5.50;99.90;;;;;;5055355;28;20350;-71
2022/11/21 02:44:14;;;;;;;38.55;23.83;;;5.50;99.90;;;;;;5054603;28;20028;-72
2022/11/21 02:46:49;;;;;;;36.60;23.73;;;5.60;99.90;;;;;;5055352;28;20052;-72
2022/11/21 02:49:30;;;;;;;36.83;24.65;;;5.60;99.90;;;;;;5055405;28;20025;-72
2022/11/21 02:51:56;;;;;;;38.92;23.67;;;5.60;99.90;;;;;;5054213;28;20369;-72
2022/11/21 02:54:21;;;;;;;42.97;26.88;;;5.50;99.90;;;;;;5053684;28;20036;-72
2022/11/21 02:56:47;;;;;;;45.03;27.92;;;5.50;99.90;;;;;;5053611;28;20065;-72
2022/11/21 02:59:12;;;;;;;46.00;27.95;;;5.30;99.90;;;;;;5054769;28;20036;-72
2022/11/21 03:01:38;;;;;;;44.88;27.50;;;5.20;99.90;;;;;;5053591;28;20044;-72
2022/11/21 03:04:04;;;;;;;44.30;27.77;;;5.10;99.90;;;;;;5053554;28;20457;-72
2022/11/21 03:06:29;;;;;;;48.13;28.17;;;5.10;99.90;;;;;;5053713;28;20037;-72
2022/11/21 03:08:55;;;;;;;45.65;27.83;;;5.10;99.90;;;;;;5054732;28;20103;-72
2022/11/21 03:11:20;;;;;;;45.53;28.42;;;5.00;99.90;;;;;;5054304;28;20029;-72
2022/11/21 03:13:46;;;;;;;46.95;28.08;;;5.00;99.90;;;;;;5054134;28;20440;-72
2022/11/21 03:16:11;;;;;;;47.83;27.83;;;5.10;99.90;;;;;;5052961;28;20032;-72
2022/11/21 03:18:37;;;;;;;51.17;28.58;;;5.20;99.90;;;;;;5053097;28;20033;-72
2022/11/21 03:21:03;;;;;;;49.50;30.42;;;5.20;99.90;;;;;;5052829;28;20037;-72
2022/11/21 03:23:28;;;;;;;56.67;31.38;;;5.10;99.90;;;;;;5054547;28;20532;-72
2022/11/21 03:25:54;;;;;;;54.40;29.15;;;5.00;99.90;;;;;;5053151;28;20037;-72
2022/11/21 03:28:19;;;;;;;54.58;31.30;;;4.80;99.90;;;;;;5053954;28;20395;-72
2022/11/21 03:30:46;;;;;;;56.42;31.75;;;4.70;99.90;;;;;;5036663;28;20029;-72
2022/11/21 03:33:12;;;;;;;53.17;29.63;;;4.70;99.90;;;;;;5053133;28;20037;-71
2022/11/21 03:35:37;;;;;;;54.47;31.27;;;4.70;99.90;;;;;;5054401;28;20032;-71
2022/11/21 03:38:03;;;;;;;54.25;30.88;;;4.70;99.90;;;;;;5052738;28;20032;-71
2022/11/21 03:40:28;;;;;;;52.42;29.35;;;4.80;99.90;;;;;;5053748;28;20250;-72
2022/11/21 03:42:54;;;;;;;55.25;29.42;;;4.90;99.90;;;;;;5053961;28;20036;-72
2022/11/21 03:45:20;;;;;;;51.92;29.08;;;4.90;99.90;;;;;;5053686;28;20045;-71
2022/11/21 03:47:45;;;;;;;47.05;26.80;;;4.90;99.90;;;;;;5052745;28;20055;-71
2022/11/21 03:50:13;;;;;;;47.72;26.83;;;4.90;99.90;;;;;;5052363;28;20044;-72
2022/11/21 03:52:39;;;;;;;47.72;27.30;;;5.00;99.90;;;;;;5053681;28;20420;-72
2022/11/21 03:55:05;;;;;;;42.70;24.48;;;5.10;99.90;;;;;;5052568;28;20059;-71
2022/11/21 03:57:30;;;;;;;46.20;25.90;;;5.10;99.90;;;;;;5052870;28;20087;-71
2022/11/21 03:59:56;;;;;;;45.20;25.63;;;5.20;99.90;;;;;;5052610;28;20370;-72
2022/11/21 04:02:22;;;;;;;47.20;25.85;;;5.20;99.90;;;;;;5069082;28;20036;-72
2022/11/21 04:04:47;;;;;;;45.97;26.48;;;5.20;99.90;;;;;;5053424;28;20051;-71
2022/11/21 04:07:13;;;;;;;47.88;26.88;;;5.30;99.90;;;;;;5052176;28;20037;-71
2022/11/21 04:09:38;;;;;;;49.88;26.75;;;5.40;99.90;;;;;;5051974;28;20168;-71
2022/11/21 04:12:04;;;;;;;48.15;27.98;;;5.40;99.90;;;;;;5036049;28;20029;-71
2022/11/21 04:14:30;;;;;;;50.05;27.73;;;5.40;99.90;;;;;;5053259;28;20508;-71
2022/11/21 04:16:55;;;;;;;50.72;28.27;;;5.40;99.90;;;;;;5053109;28;20025;-71
2022/11/21 04:19:21;;;;;;;49.60;27.40;;;5.50;99.90;;;;;;5052168;28;20029;-71
2022/11/21 04:21:46;;;;;;;46.80;27.33;;;5.50;99.90;;;;;;5051854;28;20029;-72
2022/11/21 04:24:12;;;;;;;44.70;27.58;;;5.50;99.90;;;;;;5052371;28;20119;-71
2022/11/21 04:26:38;;;;;;;45.92;26.20;;;5.50;99.90;;;;;;5051816;28;20039;-71
2022/11/21 04:29:03;;;;;;;41.22;24.80;;;5.50;99.90;;;;;;5052132;28;20086;-71
2022/11/21 04:31:29;;;;;;;46.03;27.13;;;5.50;99.90;;;;;;5051776;28;20083;-72
2022/11/21 04:33:54;;;;;;;44.03;26.65;;;5.50;99.90;;;;;;5053274;28;20047;-71
2022/11/21 04:36:20;;;;;;;49.92;28.20;;;5.40;99.90;;;;;;5051779;28;20037;-72
2022/11/21 04:38:46;;;;;;;44.75;27.23;;;5.40;99.90;;;;;;5052015;28;20064;-71
2022/11/21 04:41:11;;;;;;;45.95;26.92;;;5.40;99.90;;;;;;5051674;28;20029;-71
2022/11/21 04:43:37;;;;;;;47.65;27.17;;;5.40;99.90;;;;;;5051936;28;20462;-72
2022/11/21 04:46:02;;;;;;;43.25;24.27;;;5.50;99.90;;;;;;5053074;28;20033;-72
2022/11/21 04:48:28;;;;;;;42.10;24.60;;;5.50;99.90;;;;;;5051883;28;20044;-71
2022/11/21 04:50:53;;;;;;;42.55;24.55;;;5.50;99.90;;;;;;5051819;28;20486;-71
2022/11/21 04:53:19;;;;;;;45.28;25.70;;;5.50;99.90;;;;;;5051837;28;20040;-71
2022/11/21 04:55:45;;;;;;;45.17;27.15;;;5.50;99.90;;;;;;5053029;28;20033;-71
2022/11/21 04:58:10;;;;;;;46.28;26.83;;;5.50;99.90;;;;;;5052986;28;20029;-71
2022/11/21 05:00:36;;;;;;;49.53;27.80;;;5.50;99.90;;;;;;5052624;28;20033;-71
2022/11/21 05:03:06;;;;;;;48.47;27.75;;;5.50;99.90;;;;;;5052701;28;20033;-72
2022/11/21 05:05:31;;;;;;;51.58;29.50;;;5.50;99.90;;;;;;5055491;28;20047;-72
2022/11/21 05:07:57;;;;;;;51.17;28.20;;;5.40;99.90;;;;;;5055236;28;20131;-72
2022/11/21 05:10:23;;;;;;;47.63;28.55;;;5.40;99.90;;;;;;5056357;28;20028;-73
2022/11/21 05:15:40;;;;;;;51.45;27.50;;;5.40;99.90;;;;;;5057419;28;20087;-73
2022/11/21 05:18:05;;;;;;;48.20;26.13;;;5.30;99.90;;;;;;5055056;28;20045;-72
2022/11/21 05:20:31;;;;;;;46.97;26.50;;;5.30;99.90;;;;;;5055209;28;20029;-72
2022/11/21 05:22:57;;;;;;;46.40;26.10;;;5.30;99.90;;;;;;5055275;28;20052;-72
2022/11/21 05:25:22;;;;;;;40.72;24.48;;;5.30;99.90;;;;;;5056465;28;20120;-72
2022/11/21 05:27:48;;;;;;;47.25;24.35;;;5.30;99.90;;;;;;5056518;28;20037;-73
2022/11/21 05:30:14;;;;;;;48.40;26.40;;;5.30;99.90;;;;;;5055632;28;20138;-73
2022/11/21 05:32:39;;;;;;;53.53;28.10;;;5.30;99.90;;;;;;5056382;28;20044;-72
2022/11/21 05:35:06;;;;;;;51.75;27.42;;;5.30;99.90;;;;;;5038270;28;20067;-72
2022/11/21 05:37:38;;;;;;;49.47;26.42;;;5.30;99.90;;;;;;5056106;28;20021;-72
2022/11/21 05:40:04;;;;;;;45.42;25.00;;;5.20;99.90;;;;;;5055665;28;20033;-72
2022/11/21 05:45:14;;;;;;;49.70;27.25;;;5.30;99.90;;;;;;5055306;28;20044;-72
2022/11/21 05:47:43;;;;;;;58.10;29.83;;;5.40;99.90;;;;;;5056655;28;20032;-72
2022/11/21 05:50:08;;;;;;;59.20;29.33;;;5.30;99.90;;;;;;5055685;28;20041;-72
2022/11/21 05:52:34;;;;;;;66.82;31.00;;;5.30;99.90;;;;;;5055749;28;20025;-72
2022/11/21 05:55:00;;;;;;;66.10;32.17;;;5.30;99.90;;;;;;5055071;28;20037;-72
2022/11/21 05:57:25;;;;;;;64.72;31.83;;;5.30;99.90;;;;;;5055029;28;20446;-73
2022/11/21 05:59:51;;;;;;;98.47;34.67;;;5.40;99.90;;;;;;5054624;28;20025;-73
2022/11/21 06:05:00;;;;;;;74.30;36.05;;;5.40;99.90;;;;;;5055757;28;20048;-73
2022/11/21 06:07:26;;;;;;;77.97;35.90;;;5.30;99.90;;;;;;5054375;28;20377;-73
2022/11/21 06:09:51;;;;;;;75.25;35.75;;;5.30;99.90;;;;;;5054982;28;20036;-73
2022/11/21 06:12:17;;;;;;;70.35;34.85;;;5.20;99.90;;;;;;5054353;28;20029;-73
2022/11/21 06:14:43;;;;;;;69.60;34.25;;;5.20;99.90;;;;;;5053333;28;20067;-74
2022/11/21 06:17:08;;;;;;;77.03;35.92;;;5.20;99.90;;;;;;5038000;28;20033;-74
2022/11/21 06:19:34;;;;;;;80.53;37.65;;;5.20;99.90;;;;;;5053792;28;20037;-73
2022/11/21 06:21:59;;;;;;;75.80;37.38;;;5.20;99.90;;;;;;5055272;28;20099;-73
2022/11/21 06:24:25;;;;;;;75.95;35.45;;;5.10;99.90;;;;;;5054127;28;20481;-72
2022/11/21 06:26:51;;;;;;;61.75;31.10;;;5.10;99.90;;;;;;5055060;28;20033;-72
2022/11/21 06:29:16;;;;;;;65.10;31.77;;;5.10;99.90;;;;;;5054941;28;20436;-73
2022/11/21 06:31:42;;;;;;;64.72;32.05;;;5.20;99.90;;;;;;5037949;28;20036;-73
2022/11/21 06:34:07;;;;;;;66.65;32.42;;;5.20;99.90;;;;;;5054083;28;20029;-73
2022/11/21 06:36:34;;;;;;;65.47;32.00;;;5.30;99.90;;;;;;5055193;28;20029;-73
2022/11/21 06:38:59;;;;;;;62.08;30.80;;;5.30;99.90;;;;;;5055134;28;20083;-73
2022/11/21 06:41:29;;;;;;;64.95;30.10;;;5.30;99.90;;;;;;5053747;28;20033;-73
2022/11/21 06:43:54;;;;;;;63.90;30.38;;;5.40;99.90;;;;;;5054974;28;20108;-73
2022/11/21 06:46:20;;;;;;;65.72;31.02;;;5.40;99.90;;;;;;5053831;28;20140;-73
2022/11/21 06:48:45;;;;;;;62.97;30.67;;;5.40;99.90;;;;;;5053428;28;20047;-73
2022/11/21 06:51:15;;;;;;;66.45;30.10;;;5.40;99.90;;;;;;5053901;28;20479;-72
2022/11/21 06:53:40;;;;;;;66.57;31.23;;;5.30;99.90;;;;;;5070133;28;20021;-72
2022/11/21 06:56:06;;;;;;;64.75;31.67;;;5.40;99.90;;;;;;5053315;28;20032;-74
2022/11/21 06:58:32;;;;;;;62.55;31.02;;;5.40;99.90;;;;;;5054732;28;20029;-74
2022/11/21 07:01:02;;;;;;;65.88;33.08;;;5.40;99.90;;;;;;5036901;28;20032;-74
2022/11/21 07:03:28;;;;;;;63.58;32.63;;;5.40;99.90;;;;;;5054967;28;20021;-74
2022/11/21 07:05:57;;;;;;;63.45;30.63;;;5.30;99.90;;;;;;5054521;28;20048;-74
2022/11/21 07:08:22;;;;;;;66.97;32.88;;;5.30;99.90;;;;;;5053327;28;20485;-74
2022/11/21 07:10:48;;;;;;;64.63;32.00;;;5.30;99.90;;;;;;5053219;28;20071;-74
2022/11/21 07:13:23;;;;;;;62.40;31.27;;;5.30;99.90;;;;;;5053085;28;20441;-74
2022/11/21 07:15:52;;;;;;;62.55;31.92;;;5.30;99.90;;;;;;5037502;28;20040;-74
2022/11/21 07:18:18;;;;;;;55.67;28.63;;;5.20;99.90;;;;;;5054376;28;20059;-74
2022/11/21 07:20:44;;;;;;;57.47;30.65;;;5.10;99.90;;;;;;5052985;28;20036;-74
2022/11/21 07:23:10;;;;;;;60.35;29.50;;;5.00;99.90;;;;;;5052768;28;20457;-74
2022/11/21 07:25:38;;;;;;;60.28;30.77;;;5.00;99.90;;;;;;5051997;28;20044;-74
2022/11/21 07:28:04;;;;;;;57.55;29.55;;;5.00;99.90;;;;;;5069480;28;20395;-74
2022/11/21 07:30:30;;;;;;;52.25;28.15;;;5.00;99.90;;;;;;5053970;28;20057;-73
2022/11/21 07:33:04;;;;;;;49.20;27.25;;;5.00;99.90;;;;;;5054167;28;20088;-74
2022/11/21 07:35:31;;;;;;;44.45;24.77;;;5.10;99.90;;;;;;5054153;28;20079;-75
2022/11/21 07:37:56;;;;;;;43.38;24.27;;;5.10;99.90;;;;;;5053806;28;20534;-74
2022/11/21 07:40:22;;;;;;;40.53;24.23;;;5.20;99.90;;;;;;5053993;28;20033;-74
2022/11/21 07:42:48;;;;;;;37.15;21.35;;;5.20;99.90;;;;;;5052613;28;20172;-72
2022/11/21 07:45:14;;;;;;;38.88;21.88;;;5.20;99.90;;;;;;5053684;28;20033;-76
2022/11/21 07:47:41;;;;;;;37.38;23.60;;;5.30;99.90;;;;;;5069003;28;20048;-74
2022/11/21 07:50:08;;;;;;;35.67;21.95;;;5.40;99.90;;;;;;5036187;28;20119;-78
2022/11/21 07:52:33;;;;;;;36.95;22.63;;;5.50;99.90;;;;;;5053619;28;20025;-77
2022/11/21 07:55:01;;;;;;;37.95;22.75;;;5.50;99.90;;;;;;5052621;28;20045;-76
2022/11/21 07:57:27;;;;;;;37.70;23.10;;;5.50;99.90;;;;;;5052154;28;20078;-77
2022/11/21 07:59:53;;;;;;;39.08;23.83;;;5.60;99.90;;;;;;5052351;28;20029;-76
2022/11/21 08:02:21;;;;;;;35.13;21.67;;;5.60;99.90;;;;;;5052844;28;20055;-76
2022/11/21 08:04:47;;;;;;;35.35;21.35;;;5.70;99.90;;;;;;5052434;28;20043;-76
2022/11/21 08:07:17;;;;;;;35.53;20.83;;;5.70;99.90;;;;;;5053590;28;20021;-76
2022/11/21 08:09:43;;;;;;;35.97;21.20;;;5.80;99.90;;;;;;5053444;28;20090;-76
2022/11/21 08:12:09;;;;;;;36.25;21.90;;;5.80;99.90;;;;;;5068944;28;20025;-77
2022/11/21 08:14:35;;;;;;;37.28;21.50;;;5.80;99.90;;;;;;5053742;28;20090;-76
2022/11/21 08:17:02;;;;;;;38.47;21.73;;;5.80;99.90;;;;;;5052367;28;20035;-80
2022/11/21 08:19:27;;;;;;;43.47;24.55;;;5.90;99.90;;;;;;5053435;28;20061;-80
2022/11/21 08:21:53;;;;;;;47.35;25.58;;;5.90;99.90;;;;;;5052436;28;20064;-76
2022/11/21 08:24:19;;;;;;;49.38;26.30;;;5.90;99.90;;;;;;5052290;28;20037;-79
2022/11/21 08:26:45;;;;;;;40.58;22.40;;;5.90;99.90;;;;;;5052103;28;20489;-79
2022/11/21 08:29:11;;;;;;;46.15;25.88;;;5.80;99.90;;;;;;5053448;28;20025;-77
2022/11/21 08:31:38;;;;;;;52.55;27.40;;;6.00;99.90;;;;;;5068799;28;20033;-74
2022/11/21 08:34:04;;;;;;;54.72;27.30;;;6.00;99.90;;;;;;5051689;28;20033;-74
2022/11/21 08:36:29;;;;;;;52.17;27.92;;;6.00;99.90;;;;;;5052360;28;20033;-74
2022/11/21 08:38:55;;;;;;;53.75;27.90;;;5.90;99.90;;;;;;5057283;28;20441;-75
2022/11/21 08:44:06;;;;;;;51.72;28.65;;;5.90;99.90;;;;;;5056758;28;20075;-73
2022/11/21 08:46:36;;;;;;;58.20;29.83;;;5.70;99.90;;;;;;5038860;28;20059;-73
2022/11/21 08:49:06;;;;;;;57.58;29.88;;;5.60;99.90;;;;;;5056916;28;20112;-73
2022/11/21 08:51:32;;;;;;;53.95;29.15;;;5.60;99.90;;;;;;5055766;28;20450;-73
2022/11/21 08:53:57;;;;;;;57.38;28.13;;;5.60;99.90;;;;;;5056405;28;20099;-74
2022/11/21 08:56:23;;;;;;;57.58;29.30;;;5.60;99.90;;;;;;5057335;28;20453;-73
2022/11/21 08:58:49;;;;;;;46.80;25.63;;;5.70;99.90;;;;;;5055848;28;20388;-74
2022/11/21 09:01:14;;;;;;;58.80;30.23;;;5.70;99.90;;;;;;5055708;28;20029;-73
2022/11/21 09:03:40;;;;;;;65.28;29.38;;;5.80;99.90;;;;;;5073216;28;20449;-74
2022/11/21 09:06:06;;;;;;;52.28;25.52;;;5.70;99.90;;;;;;5056548;28;20033;-73
2022/11/21 09:08:33;;;;;;;55.65;27.95;;;5.70;99.90;;;;;;5057188;28;20191;-74
2022/11/21 09:11:05;;;;;;;66.00;29.20;;;5.70;99.90;;;;;;5056814;28;20029;-74
2022/11/21 09:13:32;;;;;;;58.70;29.52;;;5.80;99.90;;;;;;5072845;28;20484;-73
2022/11/21 09:18:43;;;;;;;55.40;27.35;;;5.70;99.90;;;;;;5056937;28;20036;-73
2022/11/21 09:21:13;;;;;;;49.08;24.88;;;5.70;99.90;;;;;;5055817;28;20421;-73
2022/11/21 09:23:38;;;;;;;53.58;26.63;;;5.80;99.90;;;;;;5056634;28;20029;-73
2022/11/21 09:26:04;;;;;;;48.17;23.95;;;5.80;99.90;;;;;;5055107;28;20401;-73
2022/11/21 09:28:29;;;;;;;76.38;26.98;;;5.80;99.90;;;;;;5055315;28;20033;-73
2022/11/21 09:30:55;;;;;;;51.72;25.02;;;5.90;99.90;;;;;;5056518;28;20025;-74
2022/11/21 09:33:20;;;;;;;52.70;24.40;;;5.90;99.90;;;;;;5056472;28;20028;-74
2022/11/21 09:35:46;;;;;;;60.40;25.75;;;6.00;99.90;;;;;;5055413;28;20037;-73
2022/11/21 09:38:12;;;;;;;52.33;26.23;;;6.00;99.90;;;;;;5056359;28;20106;-73
2022/11/21 09:40:42;;;;;;;44.20;22.70;;;6.00;99.90;;;;;;5056320;28;20037;-74
2022/11/21 09:44:07;;;;;;;59.30;27.00;;;6.00;99.90;;;;;;5056225;28;20488;-73
2022/11/21 09:46:36;;;;;;;;;;;6.10;99.90;;;;;;5006821;28;20539;-73
2022/11/21 09:49:06;;;;;;;54.55;25.13;;;6.10;99.90;;;;;;5054673;28;19904;-73
2022/11/21 09:51:36;;;;;;;59.78;25.75;;;6.20;99.90;;;;;;5054682;28;20547;-74
2022/11/21 09:54:11;;;;;;;58.17;25.70;;;6.20;99.90;;;;;;5055956;28;20195;-75
2022/11/21 09:56:40;;;;;;;55.08;25.38;;;6.10;99.90;;;;;;5055495;28;20040;-75
2022/11/21 09:59:28;;;;;;;84.05;27.67;;;6.10;99.90;;;;;;5055106;28;20029;-75
2022/11/21 10:01:55;;;;;;;67.50;26.20;;;6.00;99.90;;;;;;5055723;28;20033;-75
2022/11/21 10:04:21;;;;;;;55.28;26.80;;;6.00;99.90;;;;;;5070442;28;20025;-75
2022/11/21 10:06:55;;;;;;;60.22;26.95;;;6.10;99.90;;;;;;5053541;28;20043;-75
2022/11/21 10:09:49;;;;;;;60.53;26.83;;;6.00;99.90;;;;;;5053423;28;20045;-75
2022/11/21 10:12:37;;;;;;;63.28;28.40;;;6.10;99.90;;;;;;5053795;28;20485;-76
2022/11/21 10:15:23;;;;;;;56.30;26.88;;;6.10;99.90;;;;;;5054785;28;20209;-75
2022/11/21 10:18:27;;;;;;;61.38;27.38;;;6.10;99.90;;;;;;5055380;28;20081;-75
2022/11/21 10:21:29;;;;;;;66.43;27.10;;;6.10;99.90;;;;;;5053946;28;20021;-74
2022/11/21 10:24:32;;;;;;;62.95;27.45;;;6.10;99.90;;;;;;5070002;28;20036;-75
2022/11/21 10:27:05;;;;;;;59.60;27.27;;;6.10;99.90;;;;;;5055004;28;20037;-75
2022/11/21 10:30:13;;;;;;;60.72;28.05;;;6.20;99.90;;;;;;5070459;28;20052;-75
2022/11/21 10:32:43;;;;;;;73.32;28.58;;;6.20;99.90;;;;;;5047506;28;20496;-75
2022/11/21 10:35:35;;;;;;;62.90;27.10;;;6.20;99.90;;;;;;5070490;28;20037;-75
2022/11/21 10:38:10;;;;;;;58.90;27.77;;;6.20;99.90;;;;;;5066658;28;20025;-75
2022/11/21 10:40:38;;;;;;;67.13;28.13;;;6.30;99.90;;;;;;5054586;28;20035;-77
2022/11/21 10:46:09;;;;;;;57.80;27.10;;;6.40;99.90;;;;;;5054524;28;20044;-74
2022/11/21 10:48:34;;;;;;;76.53;30.27;;;6.40;99.90;;;;;;5054734;28;20033;-75
2022/11/21 10:51:12;;;;;;;62.70;29.83;;;6.50;99.90;;;;;;5036513;28;20443;-75
2022/11/21 10:56:25;;;;;;;61.65;29.50;;;6.60;99.90;;;;;;5054115;28;20075;-75
2022/11/21 10:59:11;;;;;;;61.08;30.50;;;6.70;99.90;;;;;;5071678;28;20025;-74
2022/11/21 11:01:37;;;;;;;59.83;30.08;;;6.70;99.90;;;;;;5042710;28;20546;-75
2022/11/21 11:04:05;;;;;;;70.75;30.15;;;6.70;99.90;;;;;;5059029;28;20123;-75
2022/11/21 11:06:31;;;;;;;62.92;31.17;;;6.80;99.90;;;;;;5055254;28;20423;-74
2022/11/21 11:08:57;;;;;;;70.90;32.33;;;6.80;99.90;;;;;;5068946;28;20045;-74
2022/11/21 11:11:25;;;;;;;63.50;31.92;;;6.80;99.90;;;;;;5053080;28;20029;-74
2022/11/21 11:13:55;;;;;;;62.35;30.60;;;6.80;99.90;;;;;;5052908;28;20035;-76
2022/11/21 11:16:23;;;;;;;62.80;29.88;;;6.80;99.90;;;;;;5054163;28;20025;-76
2022/11/21 11:18:57;;;;;;;59.78;30.33;;;6.80;99.90;;;;;;5054014;28;20025;-75
2022/11/21 11:21:41;;;;;;;62.88;32.05;;;6.80;99.90;;;;;;5053231;28;20025;-76
2022/11/21 11:24:09;;;;;;;63.38;30.00;;;6.80;99.90;;;;;;5053786;28;20461;-76
2022/11/21 11:27:01;;;;;;;64.32;32.38;;;6.80;99.90;;;;;;5052999;28;20120;-76
2022/11/21 11:29:34;;;;;;;70.32;33.83;;;6.90;99.90;;;;;;5068936;28;20033;-76
2022/11/21 11:32:03;;;;;;;69.93;33.47;;;7.00;99.90;;;;;;5052709;28;20025;-77
2022/11/21 11:34:36;;;;;;;61.28;29.35;;;7.00;99.90;;;;;;5069380;28;20040;-77
2022/11/21 11:37:24;;;;;;;59.53;28.77;;;7.10;99.90;;;;;;5052793;28;20025;-76
2022/11/21 11:40:21;;;;;;;53.25;27.23;;;7.20;99.90;;;;;;5053490;28;20021;-76
2022/11/21 11:50:09;;;;;;;56.03;27.60;;;7.50;99.90;;;;;;5053389;28;20088;-77
2022/11/21 11:52:25;;;;;;;57.65;28.92;;;7.60;99.90;;;;;;5053437;28;20033;-77
2022/11/21 11:54:57;;;;;;;49.83;28.63;;;7.60;99.90;;;;;;5069075;28;20029;-77
2022/11/21 11:57:22;;;;;;;52.13;27.17;;;7.60;99.90;;;;;;5054919;28;20532;-75
2022/11/21 12:00:09;;;;;;;53.72;28.95;;;7.70;99.90;;;;;;5051776;28;20049;-77
2022/11/21 12:03:05;;;;;;;57.90;30.65;;;7.70;99.90;;;;;;5052473;28;20021;-77
2022/11/21 12:05:31;;;;;;;59.13;29.90;;;7.70;99.90;;;;;;5052530;28;20483;-77
2022/11/21 12:08:12;;;;;;;55.08;29.88;;;7.70;99.90;;;;;;5052819;28;20167;-76
2022/11/21 12:13:38;;;;;;;56.88;29.70;;;7.80;99.90;;;;;;5053439;28;20163;-76
2022/11/21 12:16:11;;;;;;;52.17;29.80;;;7.90;99.90;;;;;;5052279;28;20033;-75
2022/11/21 12:18:52;;;;;;;56.00;30.13;;;7.90;99.90;;;;;;5052249;28;20044;-75
2022/11/21 12:21:18;;;;;;;51.47;28.30;;;7.90;99.90;;;;;;5051689;28;20493;-76
2022/11/21 12:23:52;;;;;;;48.75;28.17;;;7.90;99.90;;;;;;5053247;28;20112;-75
2022/11/21 12:26:46;;;;;;;53.75;28.77;;;8.00;99.90;;;;;;5068891;28;20037;-75
2022/11/21 12:29:15;;;;;;;61.20;31.40;;;8.00;99.90;;;;;;5052602;28;20458;-76
2022/11/21 12:31:41;;;;;;;57.42;30.17;;;8.00;99.90;;;;;;5052512;28;20025;-77
2022/11/21 12:34:29;;;;;;;59.00;30.42;;;8.10;99.90;;;;;;5052538;28;20029;-77
2022/11/21 12:37:04;;;;;;;61.13;32.00;;;8.10;99.90;;;;;;5054634;28;20029;-76
2022/11/21 12:39:58;;;;;;;54.17;31.23;;;8.10;99.90;;;;;;5053775;28;20075;-76
2022/11/21 12:42:49;;;;;;;49.20;29.33;;;8.20;99.90;;;;;;5052686;28;20036;-76
2022/11/21 12:45:35;;;;;;;48.05;29.40;;;8.20;99.90;;;;;;5068709;28;20532;-76
2022/11/21 12:54:40;;;;;;;39.88;23.55;;;8.30;99.90;;;;;;5021366;28;20170;-75
2022/11/21 12:57:06;;;;;;;40.95;24.70;;;8.30;99.90;;;;;;5052424;28;20534;-76
2022/11/21 12:59:55;;;;;;;34.55;22.63;;;8.20;99.90;;;;;;5051414;28;20115;-76
2022/11/21 13:02:56;;;;;;;35.72;21.77;;;8.20;99.90;;;;;;5051421;28;20067;-76
2022/11/21 13:05:28;;;;;;;33.58;21.52;;;8.30;99.90;;;;;;5050415;28;20048;-76
2022/11/21 13:08:01;;;;;;;34.38;21.10;;;8.40;99.90;;;;;;5067667;28;20053;-75
2022/11/21 13:10:27;;;;;;;34.65;22.02;;;8.50;99.90;;;;;;5052119;28;20036;-75
2022/11/21 13:12:58;;;;;;;33.83;20.77;;;8.50;99.90;;;;;;5051371;28;20037;-76
2022/11/21 13:15:43;;;;;;;37.22;22.10;;;8.50;99.90;;;;;;5051752;28;20025;-75
2022/11/21 13:18:23;;;;;;;26.83;19.48;;;8.50;99.90;;;;;;5067865;28;20055;-75
2022/11/21 13:20:51;;;;;;;37.67;19.58;;;8.50;99.90;;;;;;5051991;28;20071;-76
2022/11/21 13:23:37;;;;;;;27.90;17.67;;;8.60;99.90;;;;;;5052065;28;20062;-73
2022/11/21 13:26:42;;;;;;;30.83;17.80;;;8.60;99.90;;;;;;5055570;28;20037;-74